Time;durP1;ratioP1;P1;durP2;ratioP2;P2;SDS_P1;SDS_P2;PMS_P1;PMS_P2;Temp;Humidity;BMP_temperature;BMP_pressure;BME280_temperature;BME280_humidity;BME280_pressure;Samples;Min_cycle;Max_cycle;Signal;HPM_P1;HPM_P2
2022/05/10 00:02:14;;;;;;;18.20;10.18;;;;;;;;;;5092231;28;20031;-84
2022/05/10 00:04:40;;;;;;;16.50;10.15;;;;;;;;;;5092060;28;20028;-84
2022/05/10 00:07:06;;;;;;;19.25;10.05;;;;;;;;;;5091877;28;20024;-84
2022/05/10 00:09:31;;;;;;;15.90;10.45;;;;;;;;;;5092727;28;20363;-84
2022/05/10 00:11:57;;;;;;;17.00;10.70;;;;;;;;;;5092242;28;20028;-84
2022/05/10 00:14:23;;;;;;;18.90;10.82;;;;;;;;;;5091756;28;20057;-85
2022/05/10 00:16:51;;;;;;;14.68;10.25;;;;;;;;;;5092872;28;20020;-84
2022/05/10 00:19:16;;;;;;;18.13;11.23;;;;;;;;;;5090903;28;20023;-85
2022/05/10 00:21:42;;;;;;;22.60;10.77;;;;;;;;;;5091670;28;20016;-85
2022/05/10 00:24:07;;;;;;;19.75;10.40;;;;;;;;;;5091534;28;20081;-84
2022/05/10 00:26:33;;;;;;;20.90;10.65;;;;;;;;;;5091629;28;20024;-84
2022/05/10 00:29:00;;;;;;;27.58;11.40;;;;;;;;;;5091196;28;20034;-84
2022/05/10 00:31:25;;;;;;;13.05;9.70;;;;;;;;;;5091217;28;20119;-85
2022/05/10 00:33:51;;;;;;;18.63;10.45;;;;;;;;;;5092478;28;20111;-84
2022/05/10 00:36:18;;;;;;;14.18;10.48;;;;;;;;;;5091622;28;20024;-84
2022/05/10 00:38:43;;;;;;;17.20;10.93;;;;;;;;;;5090782;28;20035;-84
2022/05/10 00:41:15;;;;;;;16.85;10.93;;;;;;;;;;5091491;28;20016;-84
2022/05/10 00:43:43;;;;;;;21.55;10.85;;;;;;;;;;5091146;28;20023;-84
2022/05/10 00:46:17;;;;;;;13.55;9.48;;;;;;;;;;5092111;28;20017;-84
2022/05/10 00:48:42;;;;;;;17.77;10.40;;;;;;;;;;5090645;28;20016;-84
2022/05/10 00:51:17;;;;;;;19.85;10.30;;;;;;;;;;5091159;28;20378;-84
2022/05/10 00:53:49;;;;;;;18.15;10.38;;;;;;;;;;5091014;28;20031;-85
2022/05/10 00:56:26;;;;;;;17.25;9.90;;;;;;;;;;5091005;28;20058;-84
2022/05/10 00:58:51;;;;;;;17.50;10.43;;;;;;;;;;5090252;28;20028;-84
2022/05/10 01:01:20;;;;;;;18.17;10.30;;;;;;;;;;5091167;28;20433;-84
2022/05/10 01:04:14;;;;;;;18.23;10.27;;;;;;;;;;5090842;28;20572;-84
2022/05/10 01:07:02;;;;;;;15.88;10.70;;;;;;;;;;5086102;28;20123;-84
2022/05/10 01:09:33;;;;;;;17.65;10.85;;;;;;;;;;5090053;28;20024;-84
2022/05/10 01:12:11;;;;;;;18.08;10.65;;;;;;;;;;5090741;28;20479;-84
2022/05/10 01:14:57;;;;;;;17.88;11.07;;;;;;;;;;5091974;28;20466;-84
2022/05/10 01:17:22;;;;;;;17.85;10.25;;;;;;;;;;5095560;28;20085;-84
2022/05/10 01:19:47;;;;;;;19.23;10.20;;;;;;;;;;5090029;28;20024;-84
2022/05/10 01:22:36;;;;;;;15.20;10.07;;;;;;;;;;5090726;28;20398;-84
2022/05/10 01:25:19;;;;;;;18.48;10.25;;;;;;;;;;5090807;28;20024;-84
2022/05/10 01:27:49;;;;;;;17.40;10.10;;;;;;;;;;5107660;28;20031;-84
2022/05/10 01:30:19;;;;;;;13.85;10.07;;;;;;;;;;5091767;28;20103;-84
2022/05/10 01:35:29;;;;;;;17.90;11.85;;;;;;;;;;5091893;28;20498;-84
2022/05/10 01:37:58;;;;;;;16.35;11.35;;;;;;;;;;5090247;28;20016;-84
2022/05/10 01:40:27;;;;;;;16.45;10.55;;;;;;;;;;5090458;28;20016;-84
2022/05/10 01:42:55;;;;;;;17.00;11.23;;;;;;;;;;5107307;28;20035;-84
2022/05/10 01:45:56;;;;;;;15.60;10.65;;;;;;;;;;5090162;28;20028;-84
2022/05/10 01:48:21;;;;;;;21.52;10.82;;;;;;;;;;5051984;28;20035;-84
2022/05/10 01:50:52;;;;;;;19.85;11.77;;;;;;;;;;5081723;28;20118;-84
2022/05/10 01:53:24;;;;;;;15.45;11.00;;;;;;;;;;5090365;28;20070;-84
2022/05/10 01:55:54;;;;;;;19.77;10.57;;;;;;;;;;5090095;28;20040;-84
2022/05/10 01:58:22;;;;;;;16.33;11.23;;;;;;;;;;5089614;28;20028;-84
2022/05/10 02:00:52;;;;;;;14.35;10.25;;;;;;;;;;5090294;28;20534;-83
2022/05/10 02:03:23;;;;;;;15.80;9.38;;;;;;;;;;5090206;28;20012;-84
2022/05/10 02:05:59;;;;;;;14.55;9.73;;;;;;;;;;5107141;28;20023;-84
2022/05/10 02:08:29;;;;;;;16.85;10.50;;;;;;;;;;5107213;28;20483;-84
2022/05/10 02:10:56;;;;;;;14.27;10.10;;;;;;;;;;5092124;28;20051;-84
2022/05/10 02:13:28;;;;;;;20.55;10.45;;;;;;;;;;5095551;28;20482;-84
2022/05/10 02:15:57;;;;;;;17.48;10.80;;;;;;;;;;5094136;28;20024;-84
2022/05/10 02:18:43;;;;;;;20.02;11.85;;;;;;;;;;5093551;28;20032;-84
2022/05/10 02:21:08;;;;;;;19.20;10.43;;;;;;;;;;5072888;28;20036;-84
2022/05/10 02:23:41;;;;;;;24.55;11.15;;;;;;;;;;5110964;28;20028;-84
2022/05/10 02:26:08;;;;;;;19.65;11.13;;;;;;;;;;5093825;28;20017;-84
2022/05/10 02:28:42;;;;;;;18.25;10.85;;;;;;;;;;5093553;28;20027;-84
2022/05/10 02:31:13;;;;;;;18.75;11.15;;;;;;;;;;5093894;28;20020;-84
2022/05/10 02:33:39;;;;;;;15.45;10.10;;;;;;;;;;5093663;28;20024;-84
2022/05/10 02:36:04;;;;;;;15.57;10.57;;;;;;;;;;5093344;28;20016;-84
2022/05/10 02:38:31;;;;;;;22.27;11.23;;;;;;;;;;5093282;28;20024;-84
2022/05/10 02:40:58;;;;;;;16.23;10.55;;;;;;;;;;5093735;28;20073;-84
2022/05/10 02:43:31;;;;;;;16.02;10.60;;;;;;;;;;5095003;28;20493;-84
2022/05/10 02:45:56;;;;;;;15.43;10.40;;;;;;;;;;5093349;28;20089;-84
2022/05/10 02:48:23;;;;;;;16.67;10.65;;;;;;;;;;5093105;28;20078;-84
2022/05/10 02:50:48;;;;;;;15.52;10.50;;;;;;;;;;5093481;28;20026;-84
2022/05/10 02:53:13;;;;;;;14.10;10.52;;;;;;;;;;5093562;28;20028;-84
2022/05/10 02:55:39;;;;;;;17.38;11.18;;;;;;;;;;5093328;28;20374;-84
2022/05/10 02:58:11;;;;;;;21.55;11.00;;;;;;;;;;5109692;28;20020;-84
2022/05/10 03:00:36;;;;;;;14.20;10.45;;;;;;;;;;5093487;28;20518;-84
2022/05/10 03:03:06;;;;;;;17.33;10.93;;;;;;;;;;5093379;28;20016;-84
2022/05/10 03:05:31;;;;;;;16.35;10.95;;;;;;;;;;5092988;28;20450;-84
2022/05/10 03:07:56;;;;;;;20.20;11.27;;;;;;;;;;5092469;28;20059;-84
2022/05/10 03:10:22;;;;;;;19.13;11.13;;;;;;;;;;5092796;28;20027;-84
2022/05/10 03:12:47;;;;;;;18.10;11.00;;;;;;;;;;5092313;28;20130;-84
2022/05/10 03:15:13;;;;;;;18.00;10.68;;;;;;;;;;5092915;28;20039;-84
2022/05/10 03:17:38;;;;;;;19.52;10.75;;;;;;;;;;5092552;28;20024;-84
2022/05/10 03:20:03;;;;;;;20.65;10.90;;;;;;;;;;5094288;28;20459;-84
2022/05/10 03:22:28;;;;;;;18.33;11.32;;;;;;;;;;5092535;28;20020;-84
2022/05/10 03:24:54;;;;;;;17.40;11.25;;;;;;;;;;5092581;28;20046;-84
2022/05/10 03:27:19;;;;;;;17.65;11.13;;;;;;;;;;5092844;28;20536;-84
2022/05/10 03:29:44;;;;;;;16.92;11.02;;;;;;;;;;5092501;28;20140;-84
2022/05/10 03:32:10;;;;;;;18.08;11.32;;;;;;;;;;5092769;28;20024;-84
2022/05/10 03:37:19;;;;;;;17.33;11.77;;;;;;;;;;5093714;28;20039;-84
2022/05/10 03:39:44;;;;;;;16.45;10.65;;;;;;;;;;5092142;28;20024;-84
2022/05/10 03:42:10;;;;;;;16.67;11.40;;;;;;;;;;5092433;28;20529;-84
2022/05/10 03:44:35;;;;;;;19.38;12.43;;;;;;;;;;5092408;28;20471;-84
2022/05/10 03:47:00;;;;;;;19.27;11.60;;;;;;;;;;5092192;28;20115;-84
2022/05/10 03:49:25;;;;;;;19.15;12.68;;;;;;;;;;5091908;28;20374;-84
2022/05/10 03:51:53;;;;;;;20.58;12.82;;;;;;;;;;5091758;28;20072;-84
2022/05/10 03:54:18;;;;;;;20.27;13.15;;;;;;;;;;5091922;28;20024;-84
2022/05/10 03:56:44;;;;;;;20.60;12.23;;;;;;;;;;5092135;28;20024;-84
2022/05/10 03:59:09;;;;;;;21.23;12.65;;;;;;;;;;5091741;28;20024;-84
2022/05/10 04:01:34;;;;;;;23.60;12.88;;;;;;;;;;5093508;28;20356;-84
2022/05/10 04:04:00;;;;;;;28.65;15.38;;;;;;;;;;5092015;28;20047;-84
2022/05/10 04:06:26;;;;;;;24.58;14.60;;;;;;;;;;5091779;28;20054;-84
2022/05/10 04:08:51;;;;;;;25.20;14.75;;;;;;;;;;5092797;28;20436;-84
2022/05/10 04:11:16;;;;;;;22.40;13.85;;;;;;;;;;5091906;28;20499;-84
2022/05/10 04:13:42;;;;;;;24.85;13.93;;;;;;;;;;5091850;28;20111;-85
2022/05/10 04:16:08;;;;;;;23.60;14.15;;;;;;;;;;5091760;28;20039;-84
2022/05/10 04:18:33;;;;;;;26.10;13.95;;;;;;;;;;5091189;28;20028;-84
2022/05/10 04:20:58;;;;;;;22.25;13.77;;;;;;;;;;5091671;28;20020;-84
2022/05/10 04:23:24;;;;;;;20.80;13.95;;;;;;;;;;5091697;28;20039;-83
2022/05/10 04:25:50;;;;;;;25.73;13.55;;;;;;;;;;5092718;28;20483;-84
2022/05/10 04:28:15;;;;;;;22.60;13.45;;;;;;;;;;5091121;28;20020;-84
2022/05/10 04:30:40;;;;;;;22.15;13.68;;;;;;;;;;5091278;28;20117;-84
2022/05/10 04:33:06;;;;;;;24.50;14.50;;;;;;;;;;5090502;28;20355;-84
2022/05/10 04:35:31;;;;;;;21.77;13.77;;;;;;;;;;5091195;28;20042;-84
2022/05/10 04:37:59;;;;;;;18.80;13.30;;;;;;;;;;5090931;28;20060;-84
2022/05/10 04:43:08;;;;;;;21.50;14.23;;;;;;;;;;5092869;28;20035;-85
2022/05/10 04:45:33;;;;;;;20.63;13.27;;;;;;;;;;5091297;28;20463;-84
2022/05/10 04:47:59;;;;;;;24.83;13.38;;;;;;;;;;5092073;28;20020;-84
2022/05/10 04:50:24;;;;;;;21.88;12.82;;;;;;;;;;5092372;28;20023;-84
2022/05/10 04:52:49;;;;;;;22.33;12.90;;;;;;;;;;5090993;28;20024;-84
2022/05/10 04:55:15;;;;;;;19.60;12.35;;;;;;;;;;5090881;28;20030;-84
2022/05/10 04:57:41;;;;;;;25.17;12.43;;;;;;;;;;5090344;28;20039;-84
2022/05/10 05:00:08;;;;;;;21.70;11.95;;;;;;;;;;5091027;28;20455;-85
2022/05/10 05:02:34;;;;;;;18.20;12.20;;;;;;;;;;5091104;28;20024;-85
2022/05/10 05:04:59;;;;;;;21.23;12.60;;;;;;;;;;5090924;28;20484;-85
2022/05/10 05:07:24;;;;;;;18.00;12.15;;;;;;;;;;5090855;28;20523;-85
2022/05/10 05:09:49;;;;;;;17.08;11.48;;;;;;;;;;5090519;28;20031;-84
2022/05/10 05:12:15;;;;;;;23.67;12.50;;;;;;;;;;5090474;28;20020;-84
2022/05/10 05:14:41;;;;;;;21.58;11.65;;;;;;;;;;5090416;28;20514;-85
2022/05/10 05:17:06;;;;;;;20.38;11.70;;;;;;;;;;5090467;28;20020;-84
2022/05/10 05:19:31;;;;;;;18.25;11.65;;;;;;;;;;5089929;28;20027;-84
2022/05/10 05:21:57;;;;;;;16.08;10.15;;;;;;;;;;5090365;28;20086;-84
2022/05/10 05:24:22;;;;;;;15.35;10.60;;;;;;;;;;5091564;28;20020;-85
2022/05/10 05:26:47;;;;;;;15.15;11.07;;;;;;;;;;5090544;28;20062;-84
2022/05/10 05:29:13;;;;;;;17.80;10.00;;;;;;;;;;5089794;28;20074;-85
2022/05/10 05:31:38;;;;;;;21.67;9.98;;;;;;;;;;5091869;28;20032;-84
2022/05/10 05:34:04;;;;;;;20.77;10.75;;;;;;;;;;5107710;28;20463;-84
2022/05/10 05:36:29;;;;;;;14.68;9.73;;;;;;;;;;5090378;28;20028;-84
2022/05/10 05:38:54;;;;;;;15.68;9.57;;;;;;;;;;5091200;28;20049;-84
2022/05/10 05:41:19;;;;;;;19.42;10.48;;;;;;;;;;5107465;28;20063;-84
2022/05/10 05:43:44;;;;;;;16.73;10.43;;;;;;;;;;5090534;28;20432;-84
2022/05/10 05:46:10;;;;;;;15.85;10.48;;;;;;;;;;5094228;28;20016;-85
2022/05/10 05:48:35;;;;;;;11.90;9.23;;;;;;;;;;5094240;28;20098;-85
2022/05/10 05:51:00;;;;;;;16.80;9.48;;;;;;;;;;5111541;28;20024;-85
2022/05/10 05:53:28;;;;;;;25.02;8.63;;;;;;;;;;5112028;28;20406;-85
2022/05/10 05:55:59;;;;;;;18.20;8.80;;;;;;;;;;5111634;28;20024;-85
2022/05/10 05:58:24;;;;;;;12.30;8.80;;;;;;;;;;5111231;28;20072;-85
2022/05/10 06:00:49;;;;;;;12.50;9.10;;;;;;;;;;5111283;28;20024;-84
2022/05/10 06:03:15;;;;;;;18.83;10.55;;;;;;;;;;5111067;28;20012;-85
2022/05/10 06:05:40;;;;;;;14.30;9.68;;;;;;;;;;5094282;28;20019;-85
2022/05/10 06:08:08;;;;;;;17.63;9.80;;;;;;;;;;5111086;28;20020;-85
2022/05/10 06:10:33;;;;;;;14.63;9.13;;;;;;;;;;5111321;28;20016;-84
2022/05/10 06:13:01;;;;;;;11.90;9.20;;;;;;;;;;5111275;28;20517;-85
2022/05/10 06:15:30;;;;;;;15.13;9.80;;;;;;;;;;5110929;28;20383;-85
2022/05/10 06:17:56;;;;;;;13.50;9.65;;;;;;;;;;5110316;28;20047;-84
2022/05/10 06:20:22;;;;;;;15.23;9.00;;;;;;;;;;5110901;28;20459;-84
2022/05/10 06:22:48;;;;;;;16.38;10.30;;;;;;;;;;5111194;28;20629;-85
2022/05/10 06:25:17;;;;;;;14.60;8.85;;;;;;;;;;5093938;28;20115;-84
2022/05/10 06:27:43;;;;;;;14.52;9.88;;;;;;;;;;5110544;28;20066;-84
2022/05/10 06:30:09;;;;;;;14.75;9.73;;;;;;;;;;5094647;28;20016;-84
2022/05/10 06:32:34;;;;;;;13.75;10.00;;;;;;;;;;5110747;28;20383;-85
2022/05/10 06:35:00;;;;;;;19.13;9.05;;;;;;;;;;5093799;28;20067;-85
2022/05/10 06:40:10;;;;;;;18.65;9.20;;;;;;;;;;5095006;28;20082;-84
2022/05/10 06:42:36;;;;;;;16.58;9.98;;;;;;;;;;5110417;28;20016;-84
2022/05/10 06:45:01;;;;;;;19.00;9.75;;;;;;;;;;5110382;28;20022;-85
2022/05/10 06:47:27;;;;;;;15.00;9.32;;;;;;;;;;5109832;28;20012;-84
2022/05/10 06:49:52;;;;;;;16.23;9.70;;;;;;;;;;5110097;28;20016;-84
2022/05/10 06:52:17;;;;;;;15.88;9.07;;;;;;;;;;5110384;28;20028;-84
2022/05/10 06:54:43;;;;;;;13.57;9.35;;;;;;;;;;5110139;28;20023;-85
2022/05/10 06:57:08;;;;;;;13.50;9.10;;;;;;;;;;5093995;28;20095;-84
2022/05/10 06:59:33;;;;;;;26.85;9.20;;;;;;;;;;5110058;28;20428;-84
2022/05/10 07:01:58;;;;;;;15.85;8.40;;;;;;;;;;5109955;28;20573;-84
2022/05/10 07:04:24;;;;;;;15.80;8.30;;;;;;;;;;5094406;28;20035;-84
2022/05/10 07:06:49;;;;;;;12.48;8.55;;;;;;;;;;5094407;28;20069;-85
2022/05/10 07:09:14;;;;;;;15.15;9.43;;;;;;;;;;5109708;28;20391;-84
2022/05/10 07:11:39;;;;;;;12.40;8.88;;;;;;;;;;5110169;28;20016;-84
2022/05/10 07:14:05;;;;;;;16.73;9.10;;;;;;;;;;5110170;28;20472;-85
2022/05/10 07:16:30;;;;;;;19.42;9.73;;;;;;;;;;5109666;28;20035;-85
2022/05/10 07:18:56;;;;;;;16.23;8.18;;;;;;;;;;5109209;28;20032;-84
2022/05/10 07:21:21;;;;;;;16.63;9.20;;;;;;;;;;5109737;28;20028;-85
2022/05/10 07:23:46;;;;;;;13.00;8.35;;;;;;;;;;5109527;28;20020;-84
2022/05/10 07:26:12;;;;;;;14.30;8.38;;;;;;;;;;5093775;28;20027;-85
2022/05/10 07:28:37;;;;;;;16.20;8.25;;;;;;;;;;5108934;28;20032;-84
2022/05/10 07:31:02;;;;;;;12.55;8.70;;;;;;;;;;5109533;28;20424;-85
2022/05/10 07:33:28;;;;;;;10.95;8.10;;;;;;;;;;5109690;28;20060;-85
2022/05/10 07:38:37;;;;;;;12.15;8.55;;;;;;;;;;5093352;28;20058;-85
2022/05/10 07:41:02;;;;;;;15.13;7.75;;;;;;;;;;5109463;28;20459;-84
2022/05/10 07:43:28;;;;;;;11.63;8.38;;;;;;;;;;5109517;28;20478;-84
2022/05/10 07:45:54;;;;;;;11.18;7.97;;;;;;;;;;5109429;28;20430;-85
2022/05/10 07:48:19;;;;;;;16.20;8.15;;;;;;;;;;5108772;28;20024;-84
2022/05/10 07:50:44;;;;;;;12.02;7.68;;;;;;;;;;5109046;28;20024;-85
2022/05/10 07:53:11;;;;;;;13.98;7.95;;;;;;;;;;5108901;28;20077;-84
2022/05/10 07:55:36;;;;;;;11.35;7.63;;;;;;;;;;5108685;28;20062;-85
2022/05/10 07:58:04;;;;;;;12.82;7.50;;;;;;;;;;5108385;28;20059;-85
2022/05/10 08:00:29;;;;;;;11.90;6.75;;;;;;;;;;5108901;28;20024;-85
2022/05/10 08:02:55;;;;;;;13.10;6.65;;;;;;;;;;5108915;28;20012;-85
2022/05/10 08:05:22;;;;;;;9.85;7.10;;;;;;;;;;5108433;28;20036;-85
2022/05/10 08:07:47;;;;;;;14.77;7.38;;;;;;;;;;5091214;28;20513;-84
2022/05/10 08:10:13;;;;;;;17.67;7.28;;;;;;;;;;5108601;28;20028;-85
2022/05/10 08:12:39;;;;;;;11.15;6.88;;;;;;;;;;5108959;28;20459;-85
2022/05/10 08:15:04;;;;;;;11.35;6.30;;;;;;;;;;5108575;28;20028;-85
2022/05/10 08:17:30;;;;;;;15.35;7.07;;;;;;;;;;5108153;28;20024;-85
2022/05/10 08:19:55;;;;;;;12.20;6.90;;;;;;;;;;5108766;28;20458;-85
2022/05/10 08:22:20;;;;;;;11.93;6.30;;;;;;;;;;5108576;28;20024;-85
2022/05/10 08:24:45;;;;;;;11.70;6.45;;;;;;;;;;5108620;28;20028;-84
2022/05/10 08:27:10;;;;;;;9.98;6.35;;;;;;;;;;5108058;28;20012;-84
2022/05/10 08:29:37;;;;;;;16.73;7.00;;;;;;;;;;5108765;28;20537;-85
2022/05/10 08:32:02;;;;;;;10.23;5.93;;;;;;;;;;5108620;28;20056;-84
2022/05/10 08:34:27;;;;;;;16.05;6.43;;;;;;;;;;5108364;28;20048;-84
2022/05/10 08:36:53;;;;;;;19.00;6.47;;;;;;;;;;5108607;28;20028;-84
2022/05/10 08:39:18;;;;;;;18.30;6.18;;;;;;;;;;5092653;28;20090;-84
2022/05/10 08:41:49;;;;;;;12.10;5.75;;;;;;;;;;5108516;28;20429;-84
2022/05/10 08:44:22;;;;;;;12.38;6.60;;;;;;;;;;5108442;28;20027;-84
2022/05/10 08:46:53;;;;;;;12.20;6.28;;;;;;;;;;5108395;28;20103;-84
2022/05/10 08:49:21;;;;;;;9.98;6.32;;;;;;;;;;5091959;28;20019;-84
2022/05/10 08:51:47;;;;;;;13.52;5.38;;;;;;;;;;5108222;28;20020;-84
2022/05/10 08:54:12;;;;;;;9.13;6.18;;;;;;;;;;5108021;28;20035;-85
2022/05/10 08:56:46;;;;;;;13.65;5.55;;;;;;;;;;5107707;28;20467;-84
2022/05/10 08:59:17;;;;;;;13.48;5.40;;;;;;;;;;5107289;28;20020;-85
2022/05/10 09:02:03;;;;;;;18.15;5.57;;;;;;;;;;5092276;28;20020;-85
2022/05/10 09:04:35;;;;;;;8.93;5.78;;;;;;;;;;5107901;28;20020;-85
2022/05/10 09:07:06;;;;;;;8.93;5.43;;;;;;;;;;5107664;28;20111;-85
2022/05/10 09:09:33;;;;;;;10.43;5.22;;;;;;;;;;5108098;28;20383;-85
2022/05/10 09:12:01;;;;;;;11.70;5.35;;;;;;;;;;5092355;28;20069;-85
2022/05/10 09:14:29;;;;;;;11.60;5.35;;;;;;;;;;5107935;28;20486;-85
2022/05/10 09:16:54;;;;;;;9.60;5.50;;;;;;;;;;5092181;28;20024;-85
2022/05/10 09:19:22;;;;;;;15.07;6.00;;;;;;;;;;5091429;28;20016;-84
2022/05/10 09:21:52;;;;;;;7.75;5.30;;;;;;;;;;5092171;28;20109;-85
2022/05/10 09:24:17;;;;;;;9.32;5.43;;;;;;;;;;5107751;28;20047;-85
2022/05/10 09:26:44;;;;;;;11.57;5.35;;;;;;;;;;5107239;28;20012;-84
2022/05/10 09:29:18;;;;;;;12.50;5.68;;;;;;;;;;5107020;28;20022;-84
2022/05/10 09:34:46;;;;;;;9.90;5.03;;;;;;;;;;5092045;28;20031;-84
2022/05/10 09:37:17;;;;;;;8.63;5.05;;;;;;;;;;5107173;28;20028;-84
2022/05/10 09:39:50;;;;;;;18.15;5.85;;;;;;;;;;5091880;28;20048;-84
2022/05/10 09:42:35;;;;;;;9.30;4.60;;;;;;;;;;5107501;28;20066;-84
2022/05/10 09:45:20;;;;;;;9.80;5.28;;;;;;;;;;5107449;28;20380;-84
2022/05/10 09:48:09;;;;;;;11.48;5.18;;;;;;;;;;5089449;28;20031;-84
2022/05/10 09:50:43;;;;;;;8.18;5.10;;;;;;;;;;5107294;28;20035;-84
2022/05/10 09:53:09;;;;;;;8.95;4.68;;;;;;;;;;5107619;28;20028;-84
2022/05/10 09:55:34;;;;;;;7.00;4.82;;;;;;;;;;5107391;28;20024;-84
2022/05/10 09:58:10;;;;;;;5.90;4.40;;;;;;;;;;5106764;28;20024;-83
2022/05/10 10:00:51;;;;;;;11.88;4.60;;;;;;;;;;5107311;28;20031;-83
2022/05/10 10:03:25;;;;;;;11.27;4.60;;;;;;;;;;5107028;28;20121;-83
2022/05/10 10:05:50;;;;;;;13.88;4.70;;;;;;;;;;5091446;28;20033;-84
2022/05/10 10:08:15;;;;;;;11.27;4.68;;;;;;;;;;5106764;28;20085;-84
2022/05/10 10:10:40;;;;;;;10.07;5.30;;;;;;;;;;5107263;28;20032;-84
2022/05/10 10:13:24;;;;;;;16.02;4.78;;;;;;;;;;5091474;28;20099;-84
2022/05/10 10:15:49;;;;;;;13.07;4.70;;;;;;;;;;5107497;28;20012;-83
2022/05/10 10:18:34;;;;;;;8.93;4.55;;;;;;;;;;5106820;28;20041;-84
2022/05/10 10:21:00;;;;;;;13.77;4.38;;;;;;;;;;5106914;28;20020;-84
2022/05/10 10:23:28;;;;;;;7.25;4.63;;;;;;;;;;5107273;28;20061;-84
2022/05/10 10:25:57;;;;;;;11.30;4.75;;;;;;;;;;5107103;28;20375;-84
2022/05/10 10:28:38;;;;;;;8.70;3.42;;;;;;;;;;5091706;28;20035;-83
2022/05/10 10:31:22;;;;;;;8.70;3.92;;;;;;;;;;5107176;28;20027;-83
2022/05/10 10:34:08;;;;;;;11.68;4.22;;;;;;;;;;5110319;28;20035;-84
2022/05/10 10:36:41;;;;;;;5.97;3.83;;;;;;;;;;5110876;28;20020;-83
2022/05/10 10:39:13;;;;;;;9.68;4.18;;;;;;;;;;5110357;28;20440;-83
2022/05/10 10:41:57;;;;;;;20.65;3.80;;;;;;;;;;5110767;28;20024;-83
2022/05/10 10:44:24;;;;;;;12.40;3.70;;;;;;;;;;5110766;28;20479;-83
2022/05/10 10:46:52;;;;;;;14.88;3.80;;;;;;;;;;5110450;28;20020;-84
2022/05/10 10:49:21;;;;;;;13.43;3.90;;;;;;;;;;5095008;28;20088;-84
2022/05/10 10:51:46;;;;;;;29.98;4.47;;;;;;;;;;5110516;28;20042;-83
2022/05/10 10:54:21;;;;;;;29.15;4.60;;;;;;;;;;5110501;28;20030;-83
2022/05/10 10:56:46;;;;;;;14.38;4.03;;;;;;;;;;5110381;28;20077;-83
2022/05/10 10:59:27;;;;;;;22.00;3.83;;;;;;;;;;5109416;28;20417;-84
2022/05/10 11:02:08;;;;;;;19.70;3.75;;;;;;;;;;5110352;28;20492;-83
2022/05/10 11:04:39;;;;;;;15.45;3.83;;;;;;;;;;5110047;28;20020;-84
2022/05/10 11:07:13;;;;;;;11.45;3.58;;;;;;;;;;5110185;28;20372;-84
2022/05/10 11:09:44;;;;;;;8.70;3.60;;;;;;;;;;5094557;28;20060;-84
2022/05/10 11:12:09;;;;;;;10.10;3.70;;;;;;;;;;5110150;28;20115;-84
2022/05/10 11:14:53;;;;;;;9.60;4.20;;;;;;;;;;5110491;28;20518;-84
2022/05/10 11:17:19;;;;;;;10.73;3.95;;;;;;;;;;5109325;28;20024;-84
2022/05/10 11:19:56;;;;;;;16.40;4.15;;;;;;;;;;5093867;28;20043;-83
2022/05/10 11:22:28;;;;;;;6.57;3.65;;;;;;;;;;5109556;28;20024;-83
2022/05/10 11:25:12;;;;;;;16.23;3.85;;;;;;;;;;5109563;28;20027;-83
2022/05/10 11:27:44;;;;;;;8.40;3.58;;;;;;;;;;5109532;28;20023;-83
2022/05/10 11:30:09;;;;;;;4.20;3.50;;;;;;;;;;5094110;28;20077;-84
2022/05/10 11:32:45;;;;;;;43.78;6.13;;;;;;;;;;5094169;28;20375;-84
2022/05/10 11:35:23;;;;;;;10.75;3.92;;;;;;;;;;5109379;28;20405;-83
2022/05/10 11:38:11;;;;;;;7.90;3.00;;;;;;;;;;5108937;28;20024;-83
2022/05/10 11:40:51;;;;;;;11.43;3.70;;;;;;;;;;5109538;28;20039;-83
2022/05/10 11:43:36;;;;;;;15.48;4.50;;;;;;;;;;5109367;28;20433;-84
2022/05/10 11:46:16;;;;;;;16.02;3.92;;;;;;;;;;5109548;28;20020;-84
2022/05/10 11:48:50;;;;;;;17.75;3.63;;;;;;;;;;5108927;28;20055;-84
2022/05/10 11:54:02;;;;;;;67.20;5.65;;;;;;;;;;5093384;28;20502;-83
2022/05/10 11:56:35;;;;;;;21.77;4.30;;;;;;;;;;5109225;28;20020;-84
2022/05/10 11:59:03;;;;;;;7.45;3.35;;;;;;;;;;5092954;28;20023;-83
2022/05/10 12:01:51;;;;;;;10.13;3.40;;;;;;;;;;5109113;28;20107;-84
2022/05/10 12:04:28;;;;;;;9.60;3.70;;;;;;;;;;5109061;28;20016;-84
2022/05/10 12:06:54;;;;;;;7.32;2.97;;;;;;;;;;5093006;28;20026;-84
2022/05/10 12:09:39;;;;;;;37.95;4.75;;;;;;;;;;5108909;28;20020;-83
2022/05/10 12:12:04;;;;;;;28.13;4.28;;;;;;;;;;5109090;28;20127;-84
2022/05/10 12:23:14;;;;;;;7.43;3.38;;;;;;;;;;5093300;28;20031;-85
2022/05/10 12:25:53;;;;;;;17.10;3.72;;;;;;;;;;5108548;28;20016;-84
2022/05/10 12:28:37;;;;;;;73.90;5.97;;;;;;;;;;5107820;28;20418;-84
2022/05/10 12:31:41;;;;;;;11.90;3.92;;;;;;;;;;5108321;28;20024;-84
2022/05/10 12:34:08;;;;;;;26.83;4.15;;;;;;;;;;5073533;28;20016;-84
2022/05/10 12:36:35;;;;;;;8.20;3.85;;;;;;;;;;5089941;28;20083;-84
2022/05/10 12:39:16;;;;;;;10.77;3.80;;;;;;;;;;5096588;28;20513;-83
2022/05/10 12:41:47;;;;;;;12.98;3.90;;;;;;;;;;5108414;28;20069;-84
2022/05/10 12:44:15;;;;;;;13.60;3.95;;;;;;;;;;5108246;28;20391;-84
2022/05/10 12:46:47;;;;;;;12.80;3.72;;;;;;;;;;5107538;28;20383;-84
2022/05/10 12:49:28;;;;;;;16.20;4.65;;;;;;;;;;5108193;28;20475;-84
2022/05/10 12:52:12;;;;;;;5.95;3.72;;;;;;;;;;5092454;28;20543;-83
2022/05/10 12:54:42;;;;;;;9.18;3.67;;;;;;;;;;5092138;28;20095;-84
2022/05/10 12:57:14;;;;;;;4.70;3.58;;;;;;;;;;5107442;28;20066;-84
2022/05/10 12:59:48;;;;;;;12.07;3.90;;;;;;;;;;5107622;28;20434;-84
2022/05/10 13:02:14;;;;;;;19.88;3.80;;;;;;;;;;5107990;28;20020;-83
2022/05/10 13:04:41;;;;;;;13.80;3.28;;;;;;;;;;5107842;28;20019;-83
2022/05/10 13:07:13;;;;;;;13.77;3.17;;;;;;;;;;5107435;28;20043;-84
2022/05/10 13:09:39;;;;;;;;;;;;;;;;;;5107935;28;20424;-84
2022/05/10 13:12:05;;;;;;;20.08;4.03;;;;;;;;;;5092267;28;20367;-84
2022/05/10 13:14:33;;;;;;;10.93;3.55;;;;;;;;;;5107386;28;20252;-84
2022/05/10 13:17:00;;;;;;;13.70;3.45;;;;;;;;;;5107360;28;20038;-84
2022/05/10 13:19:25;;;;;;;7.30;3.40;;;;;;;;;;5107962;28;20027;-84
2022/05/10 13:21:52;;;;;;;18.80;4.30;;;;;;;;;;5107582;28;20020;-84
2022/05/10 13:24:19;;;;;;;7.65;3.65;;;;;;;;;;5107458;28;20329;-84
2022/05/10 13:26:57;;;;;;;19.40;4.25;;;;;;;;;;5106952;28;20016;-84
2022/05/10 13:29:39;;;;;;;24.05;3.97;;;;;;;;;;5107447;28;20020;-84
2022/05/10 13:32:06;;;;;;;10.27;3.78;;;;;;;;;;5107765;28;20483;-84
2022/05/10 13:34:31;;;;;;;16.10;3.83;;;;;;;;;;5107593;28;20028;-83
2022/05/10 13:36:57;;;;;;;8.40;3.65;;;;;;;;;;5107533;28;20111;-84
2022/05/10 13:39:24;;;;;;;15.90;5.68;;;;;;;;;;5107721;28;20020;-84
2022/05/10 13:41:50;;;;;;;6.15;3.75;;;;;;;;;;5107166;28;20209;-84
2022/05/10 13:44:17;;;;;;;11.75;3.80;;;;;;;;;;5107478;28;20036;-84
2022/05/10 13:46:51;;;;;;;35.97;4.85;;;;;;;;;;5107161;28;20008;-84
2022/05/10 13:49:19;;;;;;;21.33;4.43;;;;;;;;;;5107672;28;20479;-84
2022/05/10 13:51:49;;;;;;;48.38;6.25;;;;;;;;;;5107351;28;20478;-84
2022/05/10 13:54:23;;;;;;;15.32;3.97;;;;;;;;;;5107279;28;20107;-84
2022/05/10 13:56:48;;;;;;;13.52;4.43;;;;;;;;;;5107074;28;20093;-83
2022/05/10 13:59:13;;;;;;;25.08;4.57;;;;;;;;;;5107465;28;20016;-83
2022/05/10 14:01:43;;;;;;;6.28;3.35;;;;;;;;;;5107345;28;20020;-84
2022/05/10 14:04:10;;;;;;;10.65;4.25;;;;;;;;;;5107091;28;20017;-84
2022/05/10 14:06:37;;;;;;;10.45;4.03;;;;;;;;;;5108286;28;20072;-84
2022/05/10 14:09:07;;;;;;;8.80;4.38;;;;;;;;;;5095548;28;20020;-83
2022/05/10 14:11:32;;;;;;;13.75;4.05;;;;;;;;;;5095491;28;20387;-84
2022/05/10 14:13:57;;;;;;;17.80;4.32;;;;;;;;;;5110972;28;20023;-84
2022/05/10 14:16:30;;;;;;;11.80;3.78;;;;;;;;;;5095361;28;20480;-84
2022/05/10 14:18:55;;;;;;;9.82;4.47;;;;;;;;;;5110810;28;20426;-84
2022/05/10 14:21:22;;;;;;;11.25;4.00;;;;;;;;;;5110845;28;20020;-84
2022/05/10 14:23:48;;;;;;;8.05;3.90;;;;;;;;;;5110907;28;20016;-85
2022/05/10 14:26:28;;;;;;;13.52;3.75;;;;;;;;;;5110952;28;20411;-84
2022/05/10 14:28:54;;;;;;;6.90;4.10;;;;;;;;;;5110815;28;20016;-83
2022/05/10 14:31:30;;;;;;;10.68;4.20;;;;;;;;;;5093853;28;20016;-84
2022/05/10 14:33:56;;;;;;;14.27;3.80;;;;;;;;;;5111045;28;20035;-84
2022/05/10 14:36:29;;;;;;;13.07;4.28;;;;;;;;;;5110940;28;20032;-84
2022/05/10 14:38:54;;;;;;;18.60;5.07;;;;;;;;;;5110980;28;20020;-84
2022/05/10 14:41:49;;;;;;;11.65;3.80;;;;;;;;;;5110748;28;20019;-84
2022/05/10 14:44:14;;;;;;;19.48;4.30;;;;;;;;;;5079356;28;20046;-84
2022/05/10 14:46:46;;;;;;;16.50;4.43;;;;;;;;;;5110435;28;20107;-84
2022/05/10 14:49:11;;;;;;;9.02;4.03;;;;;;;;;;5110574;28;20755;-84
2022/05/10 14:51:39;;;;;;;10.60;4.20;;;;;;;;;;5110356;28;20115;-84
2022/05/10 14:54:05;;;;;;;5.75;3.85;;;;;;;;;;5109978;28;20364;-84
2022/05/10 14:56:36;;;;;;;7.65;3.92;;;;;;;;;;5110113;28;20026;-84
2022/05/10 14:59:09;;;;;;;5.57;3.60;;;;;;;;;;5094351;28;20042;-84
2022/05/10 15:01:35;;;;;;;12.07;4.18;;;;;;;;;;5094547;28;20108;-84
2022/05/10 15:04:21;;;;;;;13.20;4.57;;;;;;;;;;5110195;28;20499;-84
2022/05/10 15:06:47;;;;;;;7.85;3.65;;;;;;;;;;5088741;28;20067;-84
2022/05/10 15:09:13;;;;;;;11.18;4.93;;;;;;;;;;5110267;28;20479;-84